createdAt,value
2023-01-29T00:01:48.624Z,27.92
2023-01-29T00:04:15.745Z,26.58
2023-01-29T00:06:43.911Z,30.58
2023-01-29T00:09:11.423Z,23.30
2023-01-29T00:11:38.732Z,25.15
2023-01-29T00:14:06.049Z,25.75
2023-01-29T00:16:33.305Z,26.98
2023-01-29T00:19:02.387Z,24.75
2023-01-29T00:21:32.647Z,24.58
2023-01-29T00:24:00.398Z,26.35
2023-01-29T00:26:27.883Z,28.25
2023-01-29T00:28:57.107Z,25.45
2023-01-29T00:31:25.337Z,24.27
2023-01-29T00:33:55.445Z,25.02
2023-01-29T00:36:22.923Z,26.98
2023-01-29T00:38:58.437Z,26.48
2023-01-29T00:41:48.872Z,28.20
2023-01-29T00:44:35.264Z,25.17
2023-01-29T00:47:02.811Z,25.50
2023-01-29T00:49:32.980Z,27.27
2023-01-29T00:52:18.673Z,24.10
2023-01-29T00:54:45.829Z,23.30
2023-01-29T00:57:12.894Z,28.13
2023-01-29T00:59:40.040Z,27.45
2023-01-29T01:02:26.343Z,25.23
2023-01-29T01:04:53.518Z,22.55
2023-01-29T01:07:20.916Z,30.02
2023-01-29T01:10:06.667Z,26.45
2023-01-29T01:12:34.024Z,24.95
2023-01-29T01:15:01.293Z,25.45
2023-01-29T01:17:28.383Z,28.55
2023-01-29T01:19:55.526Z,25.08
2023-01-29T01:22:22.672Z,25.02
2023-01-29T01:24:50.403Z,24.10
2023-01-29T01:27:19.471Z,23.58
2023-01-29T01:29:47.319Z,23.73
2023-01-29T01:32:14.458Z,28.88
2023-01-29T01:34:41.788Z,25.80
2023-01-29T01:37:08.980Z,28.17
2023-01-29T01:39:36.132Z,28.67
2023-01-29T01:42:03.340Z,26.17
2023-01-29T01:44:49.329Z,27.65
2023-01-29T01:47:16.847Z,25.88
2023-01-29T01:49:44.709Z,26.15
2023-01-29T01:52:12.609Z,31.85
2023-01-29T01:54:39.957Z,28.60
2023-01-29T01:57:15.735Z,38.33
2023-01-29T01:59:51.125Z,29.83
2023-01-29T02:02:37.398Z,31.45
2023-01-29T02:05:23.736Z,32.20
2023-01-29T02:08:10.063Z,29.00
2023-01-29T02:10:40.683Z,28.08
2023-01-29T02:13:08.290Z,30.27
2023-01-29T02:15:35.383Z,26.25
2023-01-29T02:18:02.775Z,28.70
2023-01-29T02:20:34.549Z,30.80
2023-01-29T02:23:13.783Z,30.53
2023-01-29T02:25:48.863Z,28.33
2023-01-29T02:28:15.975Z,30.13
2023-01-29T02:30:51.320Z,31.30
2023-01-29T02:33:32.128Z,30.33
2023-01-29T02:36:12.249Z,30.98
2023-01-29T02:38:49.855Z,28.30
2023-01-29T02:41:22.961Z,29.23
2023-01-29T02:43:54.696Z,32.35
2023-01-29T02:46:28.019Z,31.52
2023-01-29T02:49:09.232Z,33.38
2023-01-29T02:51:50.234Z,29.88
2023-01-29T02:54:22.495Z,33.72
2023-01-29T02:56:58.560Z,29.77
2023-01-29T02:59:34.068Z,31.58
2023-01-29T03:02:08.823Z,32.75
2023-01-29T03:04:43.170Z,31.35
2023-01-29T03:07:33.635Z,32.35
2023-01-29T03:10:02.837Z,30.85
2023-01-29T03:12:34.311Z,30.70
2023-01-29T03:15:12.232Z,31.67
2023-01-29T03:17:45.159Z,35.10
2023-01-29T03:20:14.991Z,29.48
2023-01-29T03:22:44.923Z,33.35
2023-01-29T03:25:33.167Z,31.70
2023-01-29T03:28:20.682Z,28.40
2023-01-29T03:31:12.457Z,32.63
2023-01-29T03:34:04.287Z,33.38
2023-01-29T03:36:45.320Z,33.83
2023-01-29T03:39:14.263Z,33.88
2023-01-29T03:41:47.547Z,38.95
2023-01-29T03:44:31.128Z,36.22
2023-01-29T03:47:04.894Z,38.03
2023-01-29T03:49:48.494Z,30.95
2023-01-29T03:52:15.589Z,32.75
2023-01-29T03:54:59.891Z,29.98
2023-01-29T03:57:35.699Z,31.33
2023-01-29T04:00:23.030Z,30.30
2023-01-29T04:05:26.120Z,28.33
2023-01-29T04:08:11.155Z,29.40
2023-01-29T04:10:39.610Z,33.40
2023-01-29T04:13:09.732Z,32.75
2023-01-29T04:15:50.526Z,31.98
2023-01-29T04:18:22.730Z,30.02
2023-01-29T04:21:07.381Z,26.40
2023-01-29T04:23:34.839Z,26.95
2023-01-29T04:26:21.626Z,28.30
2023-01-29T04:28:58.752Z,27.15
2023-01-29T04:31:30.221Z,25.50
2023-01-29T04:34:09.773Z,27.40
2023-01-29T04:36:46.159Z,27.50
2023-01-29T04:39:22.120Z,25.35
2023-01-29T04:41:55.173Z,25.63
2023-01-29T04:44:25.118Z,28.88
2023-01-29T04:47:04.232Z,28.27
2023-01-29T04:49:36.668Z,22.90
2023-01-29T04:52:03.728Z,28.80
2023-01-29T04:54:39.900Z,27.80
2023-01-29T04:57:12.901Z,23.98
2023-01-29T04:59:43.055Z,27.75
2023-01-29T05:02:11.162Z,27.00
2023-01-29T05:04:39.546Z,31.63
2023-01-29T05:07:08.842Z,26.35
2023-01-29T05:09:37.271Z,29.08
2023-01-29T05:12:06.228Z,26.65
2023-01-29T05:14:34.667Z,31.67
2023-01-29T05:17:04.119Z,26.80
2023-01-29T05:19:31.398Z,28.42
2023-01-29T05:21:59.466Z,26.80
2023-01-29T05:24:26.996Z,25.55
2023-01-29T05:27:13.872Z,28.98
2023-01-29T05:29:42.321Z,31.35
2023-01-29T05:32:09.472Z,32.35
2023-01-29T05:34:36.574Z,32.70
2023-01-29T05:37:03.734Z,27.17
2023-01-29T05:39:30.856Z,31.80
2023-01-29T05:41:57.986Z,30.15
2023-01-29T05:44:25.366Z,30.67
2023-01-29T05:46:52.508Z,35.80
2023-01-29T05:49:20.619Z,33.10
2023-01-29T05:51:47.752Z,32.30
2023-01-29T05:54:14.866Z,33.30
2023-01-29T05:56:41.978Z,34.65
2023-01-29T05:59:09.220Z,31.00
2023-01-29T06:01:36.412Z,30.73
2023-01-29T06:04:03.647Z,34.58
2023-01-29T06:06:30.883Z,32.22
2023-01-29T06:08:57.979Z,31.63
2023-01-29T06:11:25.190Z,30.52
2023-01-29T06:13:52.396Z,30.23
2023-01-29T06:16:19.795Z,33.95
2023-01-29T06:18:46.906Z,29.27
2023-01-29T06:21:14.645Z,33.15
2023-01-29T06:23:41.791Z,32.22
2023-01-29T06:26:14.125Z,33.03
2023-01-29T06:28:42.125Z,39.25
2023-01-29T06:31:28.437Z,33.80
2023-01-29T06:33:56.350Z,30.38
2023-01-29T06:36:23.584Z,31.05
2023-01-29T06:38:50.738Z,33.80
2023-01-29T06:41:18.970Z,31.17
2023-01-29T06:43:46.445Z,36.72
2023-01-29T06:46:13.987Z,31.77
2023-01-29T06:48:41.139Z,34.60
2023-01-29T06:51:09.188Z,30.02
2023-01-29T06:53:36.758Z,34.78
2023-01-29T06:56:04.200Z,33.78
2023-01-29T06:58:31.588Z,32.63
2023-01-29T07:01:05.640Z,33.55
2023-01-29T07:03:32.943Z,32.05
2023-01-29T07:06:00.155Z,32.47
2023-01-29T07:08:28.185Z,37.92
2023-01-29T07:11:00.174Z,32.83
2023-01-29T07:13:27.828Z,31.13
2023-01-29T07:15:55.209Z,29.10
2023-01-29T07:18:22.539Z,32.05
2023-01-29T07:20:49.634Z,29.27
2023-01-29T07:23:17.615Z,29.58
2023-01-29T07:25:45.238Z,37.67
2023-01-29T07:28:12.645Z,30.40
2023-01-29T07:30:39.741Z,32.05
2023-01-29T07:33:08.136Z,30.13
2023-01-29T07:35:39.201Z,33.58
2023-01-29T07:38:06.812Z,29.83
2023-01-29T07:40:34.231Z,30.52
2023-01-29T07:43:02.366Z,26.65
2023-01-29T07:45:31.641Z,32.42
2023-01-29T07:47:59.048Z,29.00
2023-01-29T07:50:27.288Z,30.27
2023-01-29T07:52:57.488Z,27.05
2023-01-29T07:55:24.871Z,30.75
2023-01-29T07:58:01.049Z,29.75
2023-01-29T08:00:28.447Z,34.33
2023-01-29T08:03:03.532Z,33.03
2023-01-29T08:05:30.769Z,32.97
2023-01-29T08:08:06.646Z,36.08
2023-01-29T08:10:37.372Z,33.55
2023-01-29T08:13:04.906Z,39.72
2023-01-29T08:15:32.256Z,34.00
2023-01-29T08:17:59.454Z,31.58
2023-01-29T08:20:26.750Z,34.25
2023-01-29T08:23:04.532Z,31.92
2023-01-29T08:25:31.986Z,29.77
2023-01-29T08:27:59.666Z,37.03
2023-01-29T08:30:31.211Z,30.83
2023-01-29T08:32:58.550Z,31.42
2023-01-29T08:35:26.166Z,30.27
2023-01-29T08:37:54.378Z,33.70
2023-01-29T08:40:21.639Z,29.73
2023-01-29T08:42:48.807Z,28.70
2023-01-29T08:45:16.142Z,30.83
2023-01-29T08:47:47.356Z,26.10
2023-01-29T08:50:17.917Z,30.05
2023-01-29T08:52:45.877Z,26.40
2023-01-29T08:55:13.401Z,29.90
2023-01-29T08:57:40.547Z,28.55
2023-01-29T09:00:09.271Z,32.08
2023-01-29T09:02:36.491Z,30.00
2023-01-29T09:05:03.665Z,29.58
2023-01-29T09:07:30.913Z,27.83
2023-01-29T09:09:58.212Z,29.77
2023-01-29T09:12:25.398Z,31.98
2023-01-29T09:14:52.732Z,36.40
2023-01-29T09:17:20.170Z,32.78
2023-01-29T09:19:47.326Z,35.28
2023-01-29T09:22:14.594Z,31.92
2023-01-29T09:24:41.754Z,30.80
2023-01-29T09:27:10.957Z,33.42
2023-01-29T09:29:38.351Z,32.97
2023-01-29T09:32:05.690Z,34.90
2023-01-29T09:34:34.288Z,32.13
2023-01-29T09:37:01.571Z,33.15
2023-01-29T09:39:28.852Z,32.80
2023-01-29T09:42:14.113Z,39.75
2023-01-29T09:44:43.964Z,34.00
2023-01-29T09:47:13.366Z,38.72
2023-01-29T09:49:56.235Z,32.95
2023-01-29T09:54:57.613Z,30.92
2023-01-29T09:57:44.311Z,32.05
2023-01-29T10:00:16.026Z,33.45
2023-01-29T10:03:11.048Z,34.63
2023-01-29T10:05:44.423Z,26.50
2023-01-29T10:08:14.435Z,32.08
2023-01-29T10:10:44.655Z,32.13
2023-01-29T10:13:16.176Z,31.00
2023-01-29T10:15:51.480Z,30.98
2023-01-29T10:18:21.714Z,33.08
2023-01-29T10:21:09.824Z,30.00
2023-01-29T10:23:40.926Z,32.38
2023-01-29T10:26:12.243Z,29.35
2023-01-29T10:28:45.842Z,32.72
2023-01-29T10:31:16.071Z,30.60
2023-01-29T10:34:01.504Z,32.97
2023-01-29T10:36:34.904Z,32.75
2023-01-29T10:41:47.913Z,30.95
2023-01-29T10:44:14.990Z,28.85
2023-01-29T10:47:20.545Z,29.70
2023-01-29T10:49:50.585Z,34.55
2023-01-29T10:52:20.457Z,33.95
2023-01-29T10:54:50.438Z,33.92
2023-01-29T10:57:23.963Z,30.45
2023-01-29T10:59:51.076Z,32.90
2023-01-29T11:02:19.789Z,28.90
2023-01-29T11:04:47.061Z,30.67
2023-01-29T11:07:15.325Z,33.70
2023-01-29T11:09:58.467Z,28.48
2023-01-29T11:12:31.328Z,30.13
2023-01-29T11:15:07.715Z,26.67
2023-01-29T11:17:34.901Z,32.40
2023-01-29T11:20:01.974Z,30.70
2023-01-29T11:22:30.332Z,34.65
2023-01-29T11:25:16.279Z,29.17
2023-01-29T11:27:48.620Z,35.65
2023-01-29T11:30:19.163Z,32.80
2023-01-29T11:32:50.881Z,35.40
2023-01-29T11:35:18.646Z,33.55
2023-01-29T11:37:46.318Z,33.75
2023-01-29T11:40:19.438Z,32.28
2023-01-29T11:42:47.362Z,33.63
2023-01-29T11:45:20.702Z,31.95
2023-01-29T11:47:56.213Z,31.50
2023-01-29T11:50:25.926Z,31.55
2023-01-29T11:52:53.425Z,29.65
2023-01-29T11:55:23.044Z,31.08
2023-01-29T11:57:55.104Z,30.70
2023-01-29T12:00:33.917Z,35.38
2023-01-29T12:03:20.515Z,37.97
2023-01-29T12:05:55.073Z,33.05
2023-01-29T12:08:23.657Z,35.25
2023-01-29T12:10:50.805Z,36.88
2023-01-29T12:13:28.570Z,37.55
2023-01-29T12:16:09.910Z,33.63
2023-01-29T12:18:38.939Z,35.00
2023-01-29T12:21:10.924Z,37.38
2023-01-29T12:23:57.144Z,36.25
2023-01-29T12:26:33.216Z,33.17
2023-01-29T12:29:18.928Z,38.47
2023-01-29T12:31:58.007Z,32.20
2023-01-29T12:34:45.443Z,38.92
2023-01-29T12:37:31.094Z,34.88
2023-01-29T12:39:58.563Z,34.95
2023-01-29T12:42:25.838Z,38.83
2023-01-29T12:44:52.956Z,36.22
2023-01-29T12:47:23.935Z,31.58
2023-01-29T12:49:52.912Z,39.55
2023-01-29T12:52:23.824Z,35.40
2023-01-29T12:54:54.395Z,34.88
2023-01-29T12:57:23.873Z,36.55
2023-01-29T12:59:57.321Z,33.40
2023-01-29T13:02:31.346Z,38.28
2023-01-29T13:05:05.026Z,41.45
2023-01-29T13:07:33.878Z,40.33
2023-01-29T13:10:05.680Z,41.13
2023-01-29T13:12:33.940Z,39.45
2023-01-29T13:15:06.155Z,39.35
2023-01-29T13:17:33.875Z,44.22
2023-01-29T13:20:17.521Z,38.53
2023-01-29T13:22:45.649Z,37.95
2023-01-29T13:25:17.169Z,45.65
2023-01-29T13:27:47.512Z,44.97
2023-01-29T13:30:34.789Z,45.40
2023-01-29T13:33:09.432Z,40.95
2023-01-29T13:35:42.482Z,47.58
2023-01-29T13:38:23.810Z,45.42
2023-01-29T13:40:53.890Z,46.05
2023-01-29T13:43:22.482Z,49.58
2023-01-29T13:45:51.449Z,53.17
2023-01-29T13:48:28.898Z,48.88
2023-01-29T13:50:57.106Z,50.63
2023-01-29T13:53:35.167Z,55.67
2023-01-29T13:56:21.289Z,51.58
2023-01-29T13:58:48.841Z,54.33
2023-01-29T14:01:15.986Z,53.13
2023-01-29T14:04:02.193Z,56.03
2023-01-29T14:06:45.185Z,58.78
2023-01-29T14:09:33.324Z,57.75
2023-01-29T14:12:00.709Z,56.65
2023-01-29T14:14:57.077Z,59.55
2023-01-29T14:17:26.391Z,61.78
2023-01-29T14:20:03.710Z,59.63
2023-01-29T14:22:33.807Z,59.97
2023-01-29T14:25:03.865Z,61.38
2023-01-29T14:27:32.711Z,59.15
2023-01-29T14:30:04.223Z,57.67
2023-01-29T14:32:31.440Z,58.08
2023-01-29T14:35:03.189Z,53.40
2023-01-29T14:37:33.321Z,54.17
2023-01-29T14:40:13.680Z,59.83
2023-01-29T14:42:46.570Z,64.95
2023-01-29T14:45:29.103Z,55.85
2023-01-29T14:47:58.147Z,63.70
2023-01-29T14:50:37.706Z,59.85
2023-01-29T14:53:23.793Z,58.85
2023-01-29T14:56:14.074Z,61.97
2023-01-29T14:58:44.260Z,55.88
2023-01-29T15:01:20.156Z,51.67
2023-01-29T15:03:49.768Z,53.80
2023-01-29T15:06:19.128Z,70.80
2023-01-29T15:08:50.013Z,54.03
2023-01-29T15:11:34.345Z,53.85
2023-01-29T15:14:08.331Z,53.30
2023-01-29T15:16:49.127Z,51.53
2023-01-29T15:19:22.161Z,56.80
2023-01-29T15:22:09.319Z,52.20
2023-01-29T15:24:38.342Z,53.13
2023-01-29T15:27:07.588Z,54.85
2023-01-29T15:29:35.537Z,55.78
2023-01-29T15:32:02.785Z,60.10
2023-01-29T15:34:29.991Z,55.83
2023-01-29T15:36:57.329Z,58.58
2023-01-29T15:39:26.943Z,62.63
2023-01-29T15:42:05.598Z,58.15
2023-01-29T15:44:33.901Z,55.03
2023-01-29T15:47:01.873Z,65.68
2023-01-29T15:49:33.585Z,62.70
2023-01-29T15:52:03.616Z,59.25
2023-01-29T15:54:34.584Z,60.60
2023-01-29T15:57:04.096Z,60.28
2023-01-29T15:59:35.976Z,61.53
2023-01-29T16:02:22.065Z,59.53
2023-01-29T16:04:49.370Z,59.55
2023-01-29T16:07:17.684Z,54.63
2023-01-29T16:09:45.021Z,54.28
2023-01-29T16:12:13.380Z,57.90
2023-01-29T16:14:41.861Z,59.38
2023-01-29T16:17:35.040Z,60.83
2023-01-29T16:20:05.204Z,53.25
2023-01-29T16:22:34.270Z,53.20
2023-01-29T16:25:12.150Z,48.95
2023-01-29T16:27:43.208Z,54.88
2023-01-29T16:30:11.160Z,56.42
2023-01-29T16:32:38.452Z,53.28
2023-01-29T16:35:05.838Z,57.22
2023-01-29T16:37:35.734Z,50.80
2023-01-29T16:40:13.275Z,55.78
2023-01-29T16:42:41.983Z,53.92
2023-01-29T16:45:28.720Z,53.78
2023-01-29T16:48:02.905Z,57.00
2023-01-29T16:50:53.937Z,53.83
2023-01-29T16:53:25.109Z,54.08
2023-01-29T16:55:53.135Z,53.60
2023-01-29T16:58:21.828Z,49.97
2023-01-29T17:00:52.614Z,51.65
2023-01-29T17:03:22.083Z,50.88
2023-01-29T17:05:50.838Z,50.13
2023-01-29T17:08:30.314Z,50.80
2023-01-29T17:10:57.681Z,47.08
2023-01-29T17:13:29.094Z,48.90
2023-01-29T17:16:00.056Z,49.88
2023-01-29T17:18:27.384Z,54.83
2023-01-29T17:20:54.726Z,51.38
2023-01-29T17:23:29.066Z,53.28
2023-01-29T17:26:00.124Z,49.50
2023-01-29T17:28:27.449Z,49.10
2023-01-29T17:31:05.813Z,47.95
2023-01-29T17:33:34.511Z,50.70
2023-01-29T17:36:01.671Z,51.60
2023-01-29T17:38:28.842Z,45.05
2023-01-29T17:41:07.838Z,51.58
2023-01-29T17:43:35.480Z,53.35
2023-01-29T17:46:02.715Z,48.67
2023-01-29T17:48:30.887Z,46.92
2023-01-29T17:50:59.883Z,49.47
2023-01-29T17:53:43.269Z,49.33
2023-01-29T17:56:15.703Z,49.92
2023-01-29T17:58:43.127Z,52.03
2023-01-29T18:01:10.275Z,49.58
2023-01-29T18:03:37.534Z,51.47
2023-01-29T18:06:07.278Z,48.10
2023-01-29T18:08:35.305Z,47.88
2023-01-29T18:11:02.511Z,46.08
2023-01-29T18:13:29.695Z,50.13
2023-01-29T18:15:56.857Z,51.95
2023-01-29T18:18:24.640Z,51.92
2023-01-29T18:20:51.934Z,49.95
2023-01-29T18:23:19.269Z,49.58
2023-01-29T18:25:46.491Z,55.70
2023-01-29T18:28:15.934Z,49.97
2023-01-29T18:30:44.327Z,49.92
2023-01-29T18:33:12.897Z,49.45
2023-01-29T18:35:40.211Z,53.28
2023-01-29T18:38:07.332Z,49.00
2023-01-29T18:40:34.506Z,49.15
2023-01-29T18:43:01.735Z,47.58
2023-01-29T18:45:29.108Z,51.72
2023-01-29T18:47:56.304Z,50.30
2023-01-29T18:50:24.940Z,53.65
2023-01-29T18:52:52.288Z,45.25
2023-01-29T18:55:19.616Z,49.15
2023-01-29T18:58:26.997Z,53.85
2023-01-29T19:00:34.123Z,50.08
2023-01-29T19:03:01.297Z,48.97
2023-01-29T19:05:28.525Z,48.10
2023-01-29T19:07:55.753Z,50.60
2023-01-29T19:10:23.135Z,49.75
2023-01-29T19:12:50.703Z,51.97
2023-01-29T19:15:22.794Z,51.00
2023-01-29T19:20:18.321Z,52.40
2023-01-29T19:22:45.750Z,50.20
2023-01-29T19:25:13.046Z,55.42
2023-01-29T19:27:40.340Z,44.10
2023-01-29T19:30:07.993Z,54.25
2023-01-29T19:32:35.394Z,52.58
2023-01-29T19:35:02.607Z,51.78
2023-01-29T19:37:30.832Z,52.33
2023-01-29T19:40:01.072Z,51.97
2023-01-29T19:42:28.253Z,48.28
2023-01-29T19:44:55.408Z,47.50
2023-01-29T19:47:22.795Z,54.75
2023-01-29T19:49:50.278Z,53.92
2023-01-29T19:52:51.138Z,56.40
2023-01-29T19:55:20.072Z,57.88
2023-01-29T19:57:47.747Z,50.20
2023-01-29T20:00:17.301Z,47.90
2023-01-29T20:02:44.495Z,50.78
2023-01-29T20:05:12.915Z,51.60
2023-01-29T20:07:42.281Z,49.63
2023-01-29T20:10:11.452Z,45.63
2023-01-29T20:12:39.146Z,59.90
2023-01-29T20:15:07.465Z,50.83
2023-01-29T20:17:34.698Z,46.10
2023-01-29T20:20:02.691Z,48.65
2023-01-29T20:22:29.952Z,54.63
2023-01-29T20:24:57.835Z,49.75
2023-01-29T20:27:30.991Z,50.90
2023-01-29T20:29:58.237Z,52.42
2023-01-29T20:32:28.518Z,55.83
2023-01-29T20:34:55.616Z,50.05
2023-01-29T20:37:22.720Z,50.92
2023-01-29T20:39:50.404Z,46.10
2023-01-29T20:42:17.766Z,53.58
2023-01-29T20:44:44.946Z,49.83
2023-01-29T20:47:12.137Z,48.08
2023-01-29T20:49:39.303Z,50.30
2023-01-29T20:52:07.523Z,47.78
2023-01-29T20:54:34.750Z,46.28
2023-01-29T20:57:01.913Z,45.00
2023-01-29T20:59:29.229Z,50.65
2023-01-29T21:01:56.557Z,52.83
2023-01-29T21:04:23.826Z,46.58
2023-01-29T21:06:51.052Z,43.95
2023-01-29T21:09:18.199Z,51.72
2023-01-29T21:11:45.358Z,51.40
2023-01-29T21:14:12.570Z,44.95
2023-01-29T21:16:39.742Z,49.55
2023-01-29T21:19:10.929Z,47.17
2023-01-29T21:21:38.087Z,50.28
2023-01-29T21:24:05.323Z,46.03
2023-01-29T21:26:32.560Z,44.72
2023-01-29T21:28:59.730Z,44.67
2023-01-29T21:31:26.972Z,45.38
2023-01-29T21:33:54.214Z,49.13
2023-01-29T21:36:21.443Z,46.65
2023-01-29T21:38:48.799Z,48.30
2023-01-29T21:41:15.946Z,53.05
2023-01-29T21:43:43.331Z,43.10
2023-01-29T21:46:13.482Z,47.47
2023-01-29T21:48:40.931Z,39.95
2023-01-29T21:51:08.236Z,44.38
2023-01-29T21:53:36.665Z,43.83
2023-01-29T21:56:05.350Z,44.92
2023-01-29T21:58:32.551Z,51.35
2023-01-29T22:01:35.876Z,46.45
2023-01-29T22:03:47.714Z,47.65
2023-01-29T22:06:15.216Z,55.33
2023-01-29T22:08:42.321Z,53.80
2023-01-29T22:11:09.905Z,47.38
2023-01-29T22:13:37.278Z,56.30
2023-01-29T22:16:05.888Z,52.65
2023-01-29T22:18:33.286Z,49.63
2023-01-29T22:21:02.549Z,52.28
2023-01-29T22:23:30.619Z,52.67
2023-01-29T22:26:04.793Z,47.35
2023-01-29T22:28:31.894Z,48.05
2023-01-29T22:31:02.617Z,48.90
2023-01-29T22:33:29.997Z,49.60
2023-01-29T22:35:57.225Z,47.03
2023-01-29T22:38:24.431Z,47.17
2023-01-29T22:40:55.108Z,50.28
2023-01-29T22:43:22.540Z,43.30
2023-01-29T22:45:49.745Z,52.22
2023-01-29T22:48:16.831Z,47.10
2023-01-29T22:50:52.962Z,45.35
2023-01-29T22:53:20.457Z,46.85
2023-01-29T22:55:54.513Z,49.60
2023-01-29T22:58:21.772Z,46.67
2023-01-29T23:00:51.096Z,47.33
2023-01-29T23:03:18.333Z,48.67
2023-01-29T23:05:45.417Z,49.83
2023-01-29T23:08:12.561Z,56.28
2023-01-29T23:10:39.739Z,49.03
2023-01-29T23:13:07.021Z,54.65
2023-01-29T23:15:34.226Z,46.47
2023-01-29T23:18:01.442Z,51.80
2023-01-29T23:20:28.549Z,54.50
2023-01-29T23:22:56.138Z,57.22
2023-01-29T23:25:43.295Z,52.53
2023-01-29T23:28:10.652Z,56.53
2023-01-29T23:30:37.935Z,48.65
2023-01-29T23:33:05.601Z,65.38
2023-01-29T23:35:33.332Z,50.83
2023-01-29T23:38:00.887Z,53.35
2023-01-29T23:40:28.532Z,48.30
2023-01-29T23:42:55.968Z,48.00
2023-01-29T23:45:23.364Z,55.03
2023-01-29T23:47:50.585Z,59.47
2023-01-29T23:50:18.631Z,60.47
2023-01-29T23:52:46.042Z,56.22
2023-01-29T23:55:13.734Z,53.40
2023-01-29T23:57:40.880Z,52.00
